createdAt,value
2023-04-19T00:03:26.685Z,99785.75
2023-04-19T00:07:43.640Z,99784.91
2023-04-19T00:12:00.003Z,99777.88
2023-04-19T00:16:16.669Z,99771.63
2023-04-19T00:20:33.467Z,99775.19
2023-04-19T00:24:49.810Z,99772.94
2023-04-19T00:29:06.096Z,99768.69
2023-04-19T00:33:22.381Z,99764.09
2023-04-19T00:37:38.665Z,99763.66
2023-04-19T00:41:55.671Z,99765.72
2023-04-19T00:46:12.112Z,99762.00
2023-04-19T00:50:28.920Z,99759.78
2023-04-19T00:54:45.586Z,99750.78
2023-04-19T00:59:02.343Z,99752.19
2023-04-19T01:03:18.763Z,99763.47
2023-04-19T01:07:35.661Z,99748.81
2023-04-19T01:11:52.224Z,99745.56
2023-04-19T01:16:08.792Z,99743.34
2023-04-19T01:20:25.207Z,99738.09
2023-04-19T01:24:41.418Z,99731.41
2023-04-19T01:28:57.669Z,99728.09
2023-04-19T01:33:13.823Z,99721.31
2023-04-19T01:37:30.083Z,99723.53
2023-04-19T01:41:46.518Z,99719.66
2023-04-19T01:46:02.862Z,99716.63
2023-04-19T01:50:19.217Z,99712.31
2023-04-19T01:54:35.603Z,99714.56
2023-04-19T01:58:51.946Z,99712.34
2023-04-19T02:03:08.365Z,99706.59
2023-04-19T02:07:24.714Z,99712.28
2023-04-19T02:11:41.135Z,99698.88
2023-04-19T02:15:57.351Z,99703.75
2023-04-19T02:20:13.816Z,99694.38
2023-04-19T02:24:30.122Z,99686.28
2023-04-19T02:28:46.327Z,99696.37
2023-04-19T02:33:02.681Z,99697.63
2023-04-19T02:37:19.270Z,99694.50
2023-04-19T02:41:35.563Z,99680.81
2023-04-19T02:45:52.218Z,99684.31
2023-04-19T02:50:09.088Z,99680.78
2023-04-19T02:54:25.299Z,99677.81
2023-04-19T02:58:41.535Z,99679.56
2023-04-19T03:02:58.205Z,99675.22
2023-04-19T03:07:14.730Z,99667.06
2023-04-19T03:11:31.028Z,99666.56
2023-04-19T03:15:48.534Z,99652.13
2023-04-19T03:20:10.007Z,99650.37
2023-04-19T03:24:30.384Z,99640.75
2023-04-19T03:28:46.761Z,99638.50
2023-04-19T03:33:03.020Z,99635.06
2023-04-19T03:37:19.303Z,99632.72
2023-04-19T03:41:35.590Z,99625.78
2023-04-19T03:45:52.060Z,99626.69
2023-04-19T03:50:08.950Z,99625.78
2023-04-19T03:54:25.148Z,99623.69
2023-04-19T03:58:42.695Z,99624.81
2023-04-19T04:02:59.409Z,99623.12
2023-04-19T04:07:16.178Z,99629.41
2023-04-19T04:11:32.487Z,99630.16
2023-04-19T04:15:48.912Z,99632.59
2023-04-19T04:20:05.984Z,99627.16
2023-04-19T04:24:22.595Z,99628.28
2023-04-19T04:28:38.903Z,99625.28
2023-04-19T04:32:58.336Z,99633.16
2023-04-19T04:37:14.730Z,99629.31
2023-04-19T04:41:33.647Z,99622.16
2023-04-19T04:45:50.302Z,99620.75
2023-04-19T04:50:07.695Z,99621.94
2023-04-19T04:54:23.935Z,99613.44
2023-04-19T04:58:40.121Z,99621.72
2023-04-19T05:02:56.389Z,99611.72
2023-04-19T05:07:12.901Z,99618.28
2023-04-19T05:11:29.142Z,99612.63
2023-04-19T05:15:45.437Z,99612.34
2023-04-19T05:20:01.949Z,99612.56
2023-04-19T05:24:19.310Z,99604.91
2023-04-19T05:28:35.585Z,99607.34
2023-04-19T05:32:52.921Z,99600.28
2023-04-19T05:37:09.161Z,99592.25
2023-04-19T05:41:25.987Z,99595.97
2023-04-19T05:45:42.234Z,99584.59
2023-04-19T05:49:58.471Z,99590.81
2023-04-19T05:54:15.123Z,99575.94
2023-04-19T05:58:31.588Z,99571.16
2023-04-19T06:02:48.025Z,99576.56
2023-04-19T06:07:06.179Z,99585.62
2023-04-19T06:11:29.188Z,99584.31
2023-04-19T06:15:55.492Z,99584.81
2023-04-19T06:20:12.539Z,99591.69
2023-04-19T06:24:28.799Z,99599.22
2023-04-19T06:28:44.947Z,99595.88
2023-04-19T06:33:01.229Z,99588.66
2023-04-19T06:37:17.487Z,99592.34
2023-04-19T06:41:33.730Z,99595.22
2023-04-19T06:45:49.993Z,99588.69
2023-04-19T06:50:06.931Z,99589.34
2023-04-19T06:54:23.287Z,99586.97
2023-04-19T06:58:39.428Z,99582.87
2023-04-19T07:02:55.911Z,99580.38
2023-04-19T07:07:12.204Z,99571.06
2023-04-19T07:11:28.550Z,99568.84
2023-04-19T07:15:44.795Z,99563.16
2023-04-19T07:20:01.009Z,99556.97
2023-04-19T07:24:17.833Z,99563.78
2023-04-19T07:28:34.280Z,99549.16
2023-04-19T07:32:52.867Z,99541.63
2023-04-19T07:37:10.619Z,99539.50
2023-04-19T07:41:26.801Z,99534.81
2023-04-19T07:45:43.149Z,99538.91
2023-04-19T07:49:59.483Z,99530.00
2023-04-19T07:54:21.085Z,99535.31
2023-04-19T07:58:38.454Z,99536.56
2023-04-19T08:02:54.918Z,99533.59
2023-04-19T08:07:12.103Z,99526.34
2023-04-19T08:11:28.483Z,99520.19
2023-04-19T08:20:06.968Z,99526.66
2023-04-19T08:24:23.425Z,99515.25
2023-04-19T08:28:39.743Z,99518.88
2023-04-19T08:32:57.261Z,99519.69
2023-04-19T08:37:13.788Z,99523.66
2023-04-19T08:41:30.910Z,99525.41
2023-04-19T08:45:51.226Z,99528.13
2023-04-19T08:50:24.190Z,99514.81
2023-04-19T08:54:46.380Z,99513.25
2023-04-19T08:59:15.595Z,99516.13
2023-04-19T09:03:44.314Z,99511.44
2023-04-19T09:08:25.462Z,99507.38
2023-04-19T09:12:42.347Z,99505.94
2023-04-19T09:17:17.641Z,99498.78
2023-04-19T09:21:34.402Z,99500.44
2023-04-19T09:30:31.177Z,99490.50
2023-04-19T09:35:00.571Z,99478.22
2023-04-19T09:39:33.204Z,99476.88
2023-04-19T09:48:09.149Z,99478.53
2023-04-19T09:52:26.506Z,99479.31
2023-04-19T09:56:43.033Z,99477.84
2023-04-19T10:01:10.650Z,99475.09
2023-04-19T10:05:32.254Z,99466.34
2023-04-19T10:09:54.140Z,99461.81
2023-04-19T10:14:12.182Z,99445.03
2023-04-19T10:18:28.577Z,99455.22
2023-04-19T10:22:44.735Z,99456.22
2023-04-19T10:27:13.974Z,99445.97
2023-04-19T10:31:30.477Z,99457.34
2023-04-19T10:35:46.863Z,99445.78
2023-04-19T10:40:04.687Z,99433.47
2023-04-19T10:44:20.947Z,99430.53
2023-04-19T10:48:55.680Z,99426.06
2023-04-19T10:53:46.091Z,99420.63
2023-04-19T10:58:07.020Z,99418.81
2023-04-19T11:02:23.461Z,99414.75
2023-04-19T11:07:04.149Z,99411.38
2023-04-19T11:11:21.881Z,99415.31
2023-04-19T11:15:43.964Z,99413.16
2023-04-19T11:20:09.610Z,99410.50
2023-04-19T11:24:26.047Z,99408.94
2023-04-19T11:28:44.859Z,99408.78
2023-04-19T11:33:01.301Z,99403.25
2023-04-19T11:37:17.542Z,99408.00
2023-04-19T11:41:39.804Z,99407.75
2023-04-19T11:45:56.117Z,99393.34
2023-04-19T11:50:31.226Z,99398.56
2023-04-19T11:54:48.227Z,99390.25
2023-04-19T11:59:04.583Z,99399.87
2023-04-19T12:03:26.532Z,99397.00
2023-04-19T12:08:06.985Z,99397.03
2023-04-19T12:12:35.153Z,99395.62
2023-04-19T12:17:07.879Z,99393.44
2023-04-19T12:21:28.939Z,99399.69
2023-04-19T12:25:47.189Z,99394.94
2023-04-19T12:30:04.505Z,99391.66
2023-04-19T12:34:21.107Z,99400.19
2023-04-19T12:38:37.865Z,99390.22
2023-04-19T12:42:54.405Z,99391.69
2023-04-19T12:47:10.592Z,99393.47
2023-04-19T12:51:28.178Z,99392.81
2023-04-19T12:55:49.215Z,99391.47
2023-04-19T13:00:07.499Z,99388.84
2023-04-19T13:04:24.215Z,99377.75
2023-04-19T13:08:46.196Z,99372.56
2023-04-19T13:13:03.984Z,99384.66
2023-04-19T13:17:21.084Z,99387.00
2023-04-19T13:21:37.303Z,99388.50
2023-04-19T13:25:53.629Z,99383.53
2023-04-19T13:30:10.406Z,99381.66
2023-04-19T13:34:26.910Z,99382.75
2023-04-19T13:38:43.160Z,99384.19
2023-04-19T13:42:59.713Z,99382.75
2023-04-19T13:47:15.970Z,99386.38
2023-04-19T13:51:46.527Z,99383.75
2023-04-19T13:56:09.516Z,99386.88
2023-04-19T14:00:25.950Z,99384.47
2023-04-19T14:04:42.240Z,99391.94
2023-04-19T14:08:58.606Z,99392.72
2023-04-19T14:13:14.831Z,99390.31
2023-04-19T14:17:31.103Z,99384.00
2023-04-19T14:21:47.326Z,99393.09
2023-04-19T14:26:03.580Z,99395.69
2023-04-19T14:30:22.050Z,99394.09
2023-04-19T14:34:38.562Z,99393.28
2023-04-19T14:38:54.807Z,99408.44
2023-04-19T14:43:15.241Z,99408.31
2023-04-19T14:47:31.551Z,99411.91
2023-04-19T14:51:47.818Z,99415.22
2023-04-19T14:56:06.060Z,99413.41
2023-04-19T15:00:22.430Z,99424.84
2023-04-19T15:04:40.996Z,99423.31
2023-04-19T15:08:57.660Z,99420.88
2023-04-19T15:13:13.976Z,99433.59
2023-04-19T15:17:30.322Z,99437.31
2023-04-19T15:21:46.785Z,99433.19
2023-04-19T15:26:03.001Z,99447.50
2023-04-19T15:30:19.308Z,99444.50
2023-04-19T15:34:35.699Z,99442.31
2023-04-19T15:38:52.128Z,99445.78
2023-04-19T15:43:08.508Z,99452.87
2023-04-19T15:47:24.870Z,99446.84
2023-04-19T15:51:41.592Z,99455.53
2023-04-19T15:55:58.458Z,99456.50
2023-04-19T16:00:15.366Z,99457.12
2023-04-19T16:04:32.258Z,99455.00
2023-04-19T16:08:48.589Z,99453.56
2023-04-19T16:13:06.107Z,99456.12
2023-04-19T16:17:22.415Z,99456.22
2023-04-19T16:21:38.770Z,99455.22
2023-04-19T16:25:56.690Z,99455.91
2023-04-19T16:30:14.598Z,99458.66
2023-04-19T16:34:30.819Z,99461.34
2023-04-19T16:38:47.062Z,99469.13
2023-04-19T16:43:05.041Z,99470.16
2023-04-19T16:47:22.118Z,99470.28
2023-04-19T16:51:38.538Z,99470.72
2023-04-19T16:55:56.508Z,99476.56
2023-04-19T17:00:13.529Z,99482.19
2023-04-19T17:04:30.061Z,99481.81
2023-04-19T17:08:46.458Z,99486.94
2023-04-19T17:13:02.767Z,99484.69
2023-04-19T17:17:20.224Z,99496.25
2023-04-19T17:21:36.987Z,99494.91
2023-04-19T17:25:53.214Z,99497.66
2023-04-19T17:30:09.878Z,99498.91
2023-04-19T17:34:26.067Z,99506.78
2023-04-19T17:38:42.239Z,99508.69
2023-04-19T17:42:58.627Z,99524.53
2023-04-19T17:47:14.891Z,99530.72
2023-04-19T17:51:31.424Z,99537.13
2023-04-19T17:55:48.218Z,99548.44
2023-04-19T18:00:07.854Z,99551.91
2023-04-19T18:04:24.483Z,99560.16
2023-04-19T18:08:40.770Z,99568.63
2023-04-19T18:12:56.938Z,99568.97
2023-04-19T18:17:13.153Z,99583.44
2023-04-19T18:21:29.415Z,99579.75
2023-04-19T18:25:52.410Z,99591.03
2023-04-19T18:30:09.190Z,99591.38
2023-04-19T18:34:25.432Z,99590.91
2023-04-19T18:38:41.950Z,99598.41
2023-04-19T18:42:58.262Z,99600.84
2023-04-19T18:47:14.448Z,99602.22
2023-04-19T18:51:30.978Z,99609.16
2023-04-19T18:55:48.730Z,99618.25
2023-04-19T19:00:11.326Z,99615.25
2023-04-19T19:04:46.711Z,99615.94
2023-04-19T19:09:04.165Z,99625.97
2023-04-19T19:13:20.517Z,99621.81
2023-04-19T19:17:36.788Z,99633.88
2023-04-19T19:21:53.172Z,99631.59
2023-04-19T19:26:11.530Z,99647.56
2023-04-19T19:30:29.775Z,99644.31
2023-04-19T19:39:05.780Z,99644.13
2023-04-19T19:43:22.067Z,99651.16
2023-04-19T19:47:44.486Z,99651.28
2023-04-19T19:52:02.427Z,99651.16
2023-04-19T19:56:22.901Z,99654.06
2023-04-19T20:00:46.965Z,99650.25
2023-04-19T20:05:06.842Z,99644.78
2023-04-19T20:09:24.740Z,99652.34
2023-04-19T20:13:40.953Z,99647.66
2023-04-19T20:17:57.489Z,99647.66
2023-04-19T20:22:13.837Z,99652.88
2023-04-19T20:26:30.136Z,99654.72
2023-04-19T20:30:46.384Z,99654.59
2023-04-19T20:35:08.647Z,99660.13
2023-04-19T20:39:25.540Z,99661.34
2023-04-19T20:43:41.763Z,99666.16
2023-04-19T20:47:58.779Z,99662.09
2023-04-19T20:52:15.264Z,99663.19
2023-04-19T20:56:31.472Z,99673.75
2023-04-19T21:00:50.097Z,99672.81
2023-04-19T21:05:06.734Z,99679.91
2023-04-19T21:09:23.067Z,99683.31
2023-04-19T21:13:39.236Z,99679.84
2023-04-19T21:17:55.473Z,99685.81
2023-04-19T21:22:11.885Z,99684.19
2023-04-19T21:26:28.189Z,99681.75
2023-04-19T21:30:44.401Z,99686.78
2023-04-19T21:35:01.617Z,99686.97
2023-04-19T21:39:17.990Z,99688.37
2023-04-19T21:43:34.542Z,99691.88
2023-04-19T21:47:51.224Z,99697.91
2023-04-19T21:52:08.224Z,99695.00
2023-04-19T21:56:24.423Z,99702.13
2023-04-19T22:00:40.965Z,99690.09
2023-04-19T22:05:00.441Z,99696.41
2023-04-19T22:09:17.069Z,99694.97
2023-04-19T22:13:33.710Z,99691.19
2023-04-19T22:17:50.559Z,99691.62
2023-04-19T22:22:06.875Z,99692.91
2023-04-19T22:26:23.211Z,99693.97
2023-04-19T22:30:39.457Z,99708.41
2023-04-19T22:34:56.056Z,99707.84
2023-04-19T22:39:12.533Z,99712.09
2023-04-19T22:43:28.763Z,99708.81
2023-04-19T22:47:45.484Z,99720.56
2023-04-19T22:52:02.062Z,99725.25
2023-04-19T22:56:18.343Z,99719.50
2023-04-19T23:00:38.006Z,99725.81
2023-04-19T23:04:54.681Z,99726.91
2023-04-19T23:09:13.896Z,99723.62
2023-04-19T23:13:30.262Z,99720.38
2023-04-19T23:17:46.696Z,99724.16
2023-04-19T23:22:03.025Z,99709.41
2023-04-19T23:26:19.302Z,99708.91
2023-04-19T23:30:35.650Z,99718.91
2023-04-19T23:34:51.981Z,99704.19
2023-04-19T23:39:08.213Z,99706.69
2023-04-19T23:43:24.523Z,99710.47
2023-04-19T23:47:40.765Z,99702.81
2023-04-19T23:51:57.140Z,99705.84
2023-04-19T23:56:13.456Z,99699.34
